Calanus - UK — GBJK — position and weather

sailwx.info

Track history (hours):
 
Tides and Currents Weather Stations Pressure Air Temp Water Temp Dewpoint Dewpoint Depression Visibility Wind Speed Wind Dir Waves Ship Positions

Oceanographic research ship Calanus - UK (UK)

Detailed information on ship capabilities available from University of Delaware's Ocean Information Center.

Last reported at 2017-Mar-29 16:09 UTC. Time now 2017-Mar-30 00:57 UTC.
Position N 56°27' W 005°26'.

Length 19 m.

Type: Dredging. MMSI: 235050871.

Date/timePositionNaut miles runAvg speedWind from/ knotsBaromVisibWave heightAir tempDewpointWater temp
2017-Mar-29 16:09N 56°27' W 005°26'3 5.1
2017-Mar-29 15:33N 56°30' W 005°28'3 2.9
2017-Mar-29 14:33N 56°32' W 005°24'1 1.1
2017-Mar-29 13:33N 56°31' W 005°23'1 1.3
2017-Mar-29 12:30N 56°32' W 005°21'1 0.7
2017-Mar-29 11:33N 56°32' W 005°20'0 0.1
2017-Mar-29 10:34N 56°32' W 005°20'1 0.7
2017-Mar-29 09:30N 56°31' W 005°21'5 4.8
2017-Mar-29 08:33N 56°30' W 005°28'3 0.2
2017-Mar-28 16:25N 56°27' W 005°26'3 3.3
2017-Mar-28 15:33N 56°28' W 005°31'1 1.2
2017-Mar-28 14:33N 56°29' W 005°30'2 1.6
2017-Mar-28 13:32N 56°30' W 005°28'1 1.4
2017-Mar-28 12:33N 56°31' W 005°27'0 0.1
2017-Mar-28 11:33N 56°31' W 005°27'0 0.4
2017-Mar-28 10:30N 56°32' W 005°27'0 0.2
2017-Mar-28 09:32N 56°32' W 005°26'3 3.4
2017-Mar-28 08:33N 56°29' W 005°29'  
Track history (hours):
 
Tides and Currents Weather Stations Pressure Air Temp Water Temp Dewpoint Dewpoint Depression Visibility Wind Speed Wind Dir Waves Ship Positions

Oceanographic research ship Calanus - UK (UK)

Detailed information on ship capabilities available from University of Delaware's Ocean Information Center.

Last reported at 2017-Mar-29 16:09 UTC. Time now 2017-Mar-30 00:57 UTC.
Position N 56°27' W 005°26'.

Length 19 m.

Type: Dredging. MMSI: 235050871.

Date/timePositionNaut miles runAvg speedWind from/ knotsBaromVisibWave heightAir tempDewpointWater temp
2017-Mar-29 16:09N 56°27' W 005°26'3 5.1
2017-Mar-29 15:33N 56°30' W 005°28'3 2.9
2017-Mar-29 14:33N 56°32' W 005°24'1 1.1
2017-Mar-29 13:33N 56°31' W 005°23'1 1.3
2017-Mar-29 12:30N 56°32' W 005°21'1 0.7
2017-Mar-29 11:33N 56°32' W 005°20'0 0.1
2017-Mar-29 10:34N 56°32' W 005°20'1 0.7
2017-Mar-29 09:30N 56°31' W 005°21'5 4.8
2017-Mar-29 08:33N 56°30' W 005°28'3 0.2
2017-Mar-28 16:25N 56°27' W 005°26'3 3.3
2017-Mar-28 15:33N 56°28' W 005°31'1 1.2
2017-Mar-28 14:33N 56°29' W 005°30'2 1.6
2017-Mar-28 13:32N 56°30' W 005°28'1 1.4
2017-Mar-28 12:33N 56°31' W 005°27'0 0.1
2017-Mar-28 11:33N 56°31' W 005°27'0 0.4
2017-Mar-28 10:30N 56°32' W 005°27'0 0.2
2017-Mar-28 09:32N 56°32' W 005°26'3 3.4
2017-Mar-28 08:33N 56°29' W 005°29'  

Dump ship's entire track history